createdAt,value
2023-03-11T03:58:50.347Z,1001.06
2023-03-11T03:59:50.180Z,1001.11
2023-03-11T04:00:50.833Z,1001.10
2023-03-11T04:01:50.899Z,1001.12
2023-03-11T04:02:50.872Z,1001.15
2023-03-11T04:03:52.816Z,1001.16
2023-03-11T04:04:52.386Z,1001.09
2023-03-11T04:05:51.218Z,1001.11
2023-03-11T04:06:51.074Z,1001.10
2023-03-11T04:07:52.199Z,1001.15
2023-03-11T04:08:51.428Z,1001.16
2023-03-11T04:09:52.321Z,1001.16
2023-03-11T04:10:52.481Z,1001.16
2023-03-11T04:11:52.173Z,1001.18
2023-03-11T04:12:52.192Z,1001.11
2023-03-11T04:13:52.043Z,1001.16
2023-03-11T04:14:53.080Z,1001.23
2023-03-11T04:15:53.411Z,1001.18
2023-03-11T04:16:52.468Z,1001.19
2023-03-11T04:17:53.505Z,1001.23
2023-03-11T04:18:53.580Z,1001.21
2023-03-11T04:19:53.714Z,1001.22
2023-03-11T04:20:53.971Z,1001.23
2023-03-11T04:21:53.077Z,1001.21
2023-03-11T04:22:55.050Z,1001.21
2023-03-11T04:23:55.049Z,1001.24
2023-03-11T04:24:53.410Z,1001.31
2023-03-11T04:25:54.511Z,1001.28
2023-03-11T04:26:55.187Z,1001.33
2023-03-11T04:27:55.037Z,1001.34
2023-03-11T04:28:53.916Z,1001.36
2023-03-11T04:29:54.040Z,1001.33
2023-03-11T04:30:54.317Z,1001.34
2023-03-11T04:31:56.354Z,1001.34
2023-03-11T04:32:55.401Z,1001.41
2023-03-11T04:33:54.524Z,1001.38
2023-03-11T04:34:54.634Z,1001.37
2023-03-11T04:35:55.818Z,1001.39
2023-03-11T04:36:55.181Z,1001.39
2023-03-11T04:37:55.981Z,1001.40
2023-03-11T04:38:55.376Z,1001.45
2023-03-11T04:39:56.328Z,1001.47
2023-03-11T04:40:55.934Z,1001.51
2023-03-11T04:41:56.649Z,1001.47
2023-03-11T04:42:57.115Z,1001.48
2023-03-11T04:43:56.165Z,1001.46
2023-03-11T04:44:56.093Z,1001.46
2023-03-11T04:45:57.291Z,1001.48
2023-03-11T04:46:56.334Z,1001.48
2023-03-11T04:47:57.866Z,1001.50
2023-03-11T04:48:56.962Z,1001.53
2023-03-11T04:49:57.665Z,1001.54
2023-03-11T04:50:57.770Z,1001.55
2023-03-11T04:51:57.989Z,1001.56
2023-03-11T04:52:57.215Z,1001.57
2023-03-11T04:53:57.718Z,1001.59
2023-03-11T04:54:57.575Z,1001.62
2023-03-11T04:55:57.600Z,1001.64
2023-03-11T04:56:58.083Z,1001.63
2023-03-11T04:57:59.166Z,1001.63
2023-03-11T04:58:58.810Z,1001.62
2023-03-11T04:59:58.937Z,1001.62
2023-03-11T05:00:58.257Z,1001.67
2023-03-11T05:01:59.205Z,1001.67
2023-03-11T05:02:58.910Z,1001.70
2023-03-11T05:03:58.750Z,1001.71
2023-03-11T05:04:59.180Z,1001.71
2023-03-11T05:05:59.214Z,1001.76
2023-03-11T05:06:59.829Z,1001.75
2023-03-11T05:07:59.127Z,1001.71
2023-03-11T05:09:00.560Z,1001.76
2023-03-11T05:10:00.652Z,1001.70
2023-03-11T05:11:00.102Z,1001.73
2023-03-11T05:12:00.047Z,1001.79
2023-03-11T05:13:00.093Z,1001.80
2023-03-11T05:13:59.951Z,1001.82
2023-03-11T05:14:59.986Z,1001.80
2023-03-11T05:16:00.708Z,1001.88
2023-03-11T05:17:01.905Z,1001.86
2023-03-11T05:18:00.605Z,1001.89
2023-03-11T05:21:17.000Z,1001.88
2023-03-11T05:22:17.142Z,1001.91
2023-03-11T05:23:17.317Z,1001.94
2023-03-11T05:24:17.245Z,1001.97
2023-03-11T05:25:17.341Z,1001.94
2023-03-11T05:26:17.690Z,1001.90
2023-03-11T05:27:17.544Z,1001.96
2023-03-11T05:28:19.118Z,1002.00
2023-03-11T05:29:18.363Z,1002.00
2023-03-11T05:30:18.883Z,1002.04
2023-03-11T05:31:18.974Z,1002.02
2023-03-11T05:32:18.833Z,1002.05
2023-03-11T05:33:20.363Z,1002.10
2023-03-11T05:34:20.373Z,1002.11
2023-03-11T05:35:18.560Z,1002.16
2023-03-11T05:36:20.485Z,1002.18
2023-03-11T05:37:18.837Z,1002.22
2023-03-11T05:38:19.897Z,1002.21
2023-03-11T05:39:19.103Z,1002.26
2023-03-11T05:40:20.540Z,1002.21
2023-03-11T05:41:19.409Z,1002.23
2023-03-11T05:42:21.386Z,1002.28
2023-03-11T05:43:19.987Z,1002.25
2023-03-11T05:44:20.732Z,1002.25
2023-03-11T05:45:20.258Z,1002.28
2023-03-11T05:46:20.323Z,1002.31
2023-03-11T05:47:20.150Z,1002.35
2023-03-11T05:48:20.388Z,1002.30
2023-03-11T05:49:21.283Z,1002.29
2023-03-11T05:50:21.487Z,1002.31
2023-03-11T05:51:20.996Z,1002.35
2023-03-11T05:52:20.932Z,1002.34
2023-03-11T05:53:22.061Z,1002.35
2023-03-11T05:54:21.396Z,1002.37
2023-03-11T05:55:21.171Z,1002.39
2023-03-11T05:56:22.471Z,1002.41
2023-03-11T05:57:21.858Z,1002.36
2023-03-11T05:58:22.597Z,1002.43
2023-03-11T05:59:21.877Z,1002.47
2023-03-11T06:00:22.863Z,1002.47
2023-03-11T06:01:22.814Z,1002.46
2023-03-11T06:02:22.584Z,1002.42
2023-03-11T06:03:22.645Z,1002.49
2023-03-11T06:04:24.546Z,1002.49
2023-03-11T06:05:22.983Z,1002.55
2023-03-11T06:06:23.070Z,1002.53
2023-03-11T06:07:22.975Z,1002.53
2023-03-11T06:08:23.880Z,1002.60
2023-03-11T06:09:24.054Z,1002.58
2023-03-11T06:10:23.219Z,1002.63
2023-03-11T06:11:23.840Z,1002.66
2023-03-11T06:12:23.912Z,1002.68
2023-03-11T06:13:23.876Z,1002.64
2023-03-11T06:14:23.960Z,1002.68
2023-03-11T06:15:45.102Z,1002.72
2023-03-11T06:16:25.145Z,1002.69
2023-03-11T06:17:25.068Z,1002.72
2023-03-11T06:18:25.252Z,1002.73
2023-03-11T06:19:24.669Z,1002.76
2023-03-11T06:20:25.486Z,1002.74
2023-03-11T06:21:25.180Z,1002.76
2023-03-11T06:22:25.942Z,1002.77
2023-03-11T06:23:25.206Z,1002.82
2023-03-11T06:24:25.307Z,1002.82
2023-03-11T06:25:25.298Z,1002.82
2023-03-11T06:26:25.886Z,1002.85
2023-03-11T06:27:26.426Z,1002.88
2023-03-11T06:28:26.082Z,1002.87
2023-03-11T06:29:26.751Z,1002.91
2023-03-11T06:30:25.986Z,1002.93
2023-03-11T06:31:26.489Z,1002.90
2023-03-11T06:32:26.559Z,1002.96
2023-03-11T06:33:26.529Z,1002.93
2023-03-11T06:34:26.939Z,1002.97
2023-03-11T06:35:27.525Z,1003.02
2023-03-11T06:36:27.739Z,1003.03
2023-03-11T06:37:27.813Z,1003.06
2023-03-11T06:38:27.455Z,1003.01
2023-03-11T06:39:27.793Z,1003.05
2023-03-11T06:40:27.751Z,1003.07
2023-03-11T06:43:44.887Z,1003.04
2023-03-11T06:44:43.946Z,1003.09
2023-03-11T06:45:44.882Z,1003.16
2023-03-11T06:46:44.125Z,1003.14
2023-03-11T06:47:45.097Z,1003.14
2023-03-11T06:48:44.585Z,1003.11
2023-03-11T06:49:44.795Z,1003.14
2023-03-11T06:50:47.026Z,1003.17
2023-03-11T06:51:45.258Z,1003.21
2023-03-11T06:52:46.188Z,1003.18
2023-03-11T06:53:45.040Z,1003.22
2023-03-11T06:54:46.228Z,1003.18
2023-03-11T06:55:45.096Z,1003.21
2023-03-11T06:56:45.260Z,1003.20
2023-03-11T06:57:45.382Z,1003.20
2023-03-11T06:58:45.502Z,1003.25
2023-03-11T06:59:45.646Z,1003.25
2023-03-11T07:00:45.908Z,1003.24
2023-03-11T07:01:45.999Z,1003.27
2023-03-11T07:02:46.095Z,1003.28
2023-03-11T07:03:46.243Z,1003.30
2023-03-11T07:04:46.319Z,1003.31
2023-03-11T07:05:46.477Z,1003.36
2023-03-11T07:06:46.554Z,1003.37
2023-03-11T07:07:46.688Z,1003.42
2023-03-11T07:08:46.816Z,1003.39
2023-03-11T07:09:46.995Z,1003.46
2023-03-11T07:10:47.533Z,1003.47
2023-03-11T07:11:47.236Z,1003.47
2023-03-11T07:12:47.309Z,1003.46
2023-03-11T07:13:47.446Z,1003.52
2023-03-11T07:14:47.567Z,1003.54
2023-03-11T07:15:48.386Z,1003.57
2023-03-11T07:16:47.975Z,1003.62
2023-03-11T07:17:47.990Z,1003.63
2023-03-11T07:18:48.109Z,1003.67
2023-03-11T07:19:48.261Z,1003.62
2023-03-11T07:20:48.404Z,1003.65
2023-03-11T07:21:48.579Z,1003.67
2023-03-11T07:22:48.698Z,1003.73
2023-03-11T07:23:48.802Z,1003.69
2023-03-11T07:24:48.919Z,1003.72
2023-03-11T07:25:49.025Z,1003.71
2023-03-11T07:26:49.084Z,1003.76
2023-03-11T07:27:49.234Z,1003.74
2023-03-11T07:28:49.379Z,1003.75
2023-03-11T07:29:49.559Z,1003.77
2023-03-11T07:30:49.926Z,1003.83
2023-03-11T07:31:49.873Z,1003.83
2023-03-11T07:32:49.944Z,1003.80
2023-03-11T07:33:50.101Z,1003.84
2023-03-11T07:34:50.434Z,1003.89
2023-03-11T07:35:50.395Z,1003.90
2023-03-11T07:36:50.474Z,1003.91
2023-03-11T07:37:50.596Z,1003.93
2023-03-11T07:38:50.702Z,1003.96
2023-03-11T07:39:50.791Z,1003.97
2023-03-11T07:40:50.973Z,1004.00
2023-03-11T07:41:51.088Z,1003.99
2023-03-11T07:42:51.511Z,1004.04
2023-03-11T07:43:51.344Z,1004.05
2023-03-11T07:44:51.519Z,1004.09
2023-03-11T07:45:51.665Z,1004.08
2023-03-11T07:46:51.758Z,1004.07
2023-03-11T07:47:51.941Z,1004.08
2023-03-11T07:48:52.061Z,1004.11
2023-03-11T07:49:52.171Z,1004.17
2023-03-11T07:50:52.480Z,1004.17
2023-03-11T07:51:52.506Z,1004.19
2023-03-11T07:52:52.581Z,1004.26
2023-03-11T07:53:52.700Z,1004.26
2023-03-11T07:54:52.823Z,1004.30
2023-03-11T07:55:52.926Z,1004.30
2023-03-11T07:56:54.447Z,1004.30
2023-03-11T07:57:53.116Z,1004.31
2023-03-11T07:58:53.279Z,1004.28
2023-03-11T07:59:53.649Z,1004.32
2023-03-11T08:00:53.594Z,1004.29
2023-03-11T08:01:53.757Z,1004.34
2023-03-11T08:02:53.992Z,1004.30
2023-03-11T08:03:55.603Z,1004.31
2023-03-11T08:04:55.623Z,1004.33
2023-03-11T08:05:54.300Z,1004.35
2023-03-11T08:06:54.418Z,1004.37
2023-03-11T08:07:55.058Z,1004.36
2023-03-11T08:08:54.724Z,1004.41
2023-03-11T08:09:54.841Z,1004.36
2023-03-11T08:10:55.081Z,1004.42
2023-03-11T08:11:55.055Z,1004.45
2023-03-11T08:12:56.097Z,1004.44
2023-03-11T08:13:55.378Z,1004.51
2023-03-11T08:14:55.436Z,1004.50
2023-03-11T08:15:55.645Z,1004.54
2023-03-11T08:16:55.762Z,1004.57
2023-03-11T08:17:55.953Z,1004.57
2023-03-11T08:18:56.970Z,1004.59
2023-03-11T08:19:56.166Z,1004.64
2023-03-11T08:20:56.263Z,1004.60
2023-03-11T08:21:56.574Z,1004.63
2023-03-11T08:22:58.310Z,1004.66
2023-03-11T08:23:56.895Z,1004.70
2023-03-11T08:24:56.847Z,1004.64
2023-03-11T08:25:57.006Z,1004.58
2023-03-11T08:26:57.184Z,1004.65
2023-03-11T08:27:57.320Z,1004.63
2023-03-11T08:28:57.542Z,1004.65
2023-03-11T08:29:57.524Z,1004.63
2023-03-11T08:30:57.703Z,1004.63
2023-03-11T08:31:57.872Z,1004.66
2023-03-11T08:32:57.983Z,1004.66
2023-03-11T08:33:58.186Z,1004.70
2023-03-11T08:34:58.265Z,1004.68
2023-03-11T08:35:58.472Z,1004.65
2023-03-11T08:36:58.556Z,1004.73
2023-03-11T08:37:58.713Z,1004.74
2023-03-11T08:38:58.809Z,1004.74
2023-03-11T08:39:58.935Z,1004.72
2023-03-11T08:40:59.040Z,1004.79
2023-03-11T08:41:59.210Z,1004.79
2023-03-11T08:42:59.401Z,1004.83
2023-03-11T08:43:59.492Z,1004.84
2023-03-11T08:44:59.669Z,1004.84
2023-03-11T08:45:59.843Z,1004.87
2023-03-11T08:46:59.948Z,1004.87
2023-03-11T08:48:00.108Z,1004.84
2023-03-11T08:49:01.332Z,1004.90
2023-03-11T08:50:00.416Z,1004.94
2023-03-11T08:51:00.579Z,1004.91
2023-03-11T08:52:00.680Z,1004.93
2023-03-11T08:53:00.899Z,1004.97
2023-03-11T08:54:01.034Z,1004.99
2023-03-11T08:55:01.171Z,1004.99
2023-03-11T08:56:01.559Z,1005.01
2023-03-11T08:57:01.402Z,1005.02
2023-03-11T08:58:01.503Z,1005.03
2023-03-11T08:59:01.713Z,1005.02
2023-03-11T09:00:01.730Z,1005.01
2023-03-11T09:01:01.949Z,1005.05
2023-03-11T09:02:03.473Z,1005.01
2023-03-11T09:03:02.650Z,1005.04
2023-03-11T09:04:03.707Z,1005.05
2023-03-11T09:05:02.435Z,1005.06
2023-03-11T09:06:03.536Z,1005.08
2023-03-11T09:07:04.128Z,1005.10
2023-03-11T09:08:04.967Z,1005.09
2023-03-11T09:09:03.003Z,1005.09
2023-03-11T09:10:03.106Z,1005.09
2023-03-11T09:11:03.235Z,1005.08
2023-03-11T09:12:03.333Z,1005.10
2023-03-11T09:13:03.443Z,1005.12
2023-03-11T09:14:03.578Z,1005.13
2023-03-11T09:15:03.665Z,1005.18
2023-03-11T09:16:03.839Z,1005.17
2023-03-11T09:17:04.022Z,1005.21
2023-03-11T09:18:04.085Z,1005.20
2023-03-11T09:19:04.228Z,1005.17
2023-03-11T09:20:04.345Z,1005.17
2023-03-11T09:21:04.469Z,1005.18
2023-03-11T09:22:04.624Z,1005.18
2023-03-11T09:23:04.735Z,1005.19
2023-03-11T09:24:04.864Z,1005.22
2023-03-11T09:25:06.456Z,1005.25
2023-03-11T09:26:05.125Z,1005.20
2023-03-11T09:27:05.296Z,1005.26
2023-03-11T09:28:05.445Z,1005.25
2023-03-11T09:29:05.617Z,1005.27
2023-03-11T09:30:05.846Z,1005.23
2023-03-11T09:31:05.964Z,1005.29
2023-03-11T09:32:06.036Z,1005.26
2023-03-11T09:33:06.256Z,1005.29
2023-03-11T09:34:06.307Z,1005.26
2023-03-11T09:35:06.460Z,1005.27
2023-03-11T09:36:06.675Z,1005.26
2023-03-11T09:37:06.694Z,1005.23
2023-03-11T09:38:18.659Z,1005.23
2023-03-11T09:39:08.026Z,1005.24
2023-03-11T09:40:07.191Z,1005.24
2023-03-11T09:41:07.285Z,1005.21
2023-03-11T09:42:07.433Z,1005.22
2023-03-11T09:43:07.650Z,1005.21
2023-03-11T09:44:09.186Z,1005.25
2023-03-11T09:45:07.963Z,1005.23
2023-03-11T09:46:07.985Z,1005.19
2023-03-11T09:47:09.582Z,1005.21
2023-03-11T09:48:08.217Z,1005.20
2023-03-11T09:49:08.413Z,1005.23
2023-03-11T09:50:08.457Z,1005.24
2023-03-11T09:51:08.597Z,1005.24
2023-03-11T09:52:08.780Z,1005.26
2023-03-11T09:53:08.943Z,1005.21
2023-03-11T09:54:09.157Z,1005.26
2023-03-11T09:55:09.183Z,1005.28
2023-03-11T09:56:09.315Z,1005.26
2023-03-11T09:57:09.468Z,1005.25
2023-03-11T09:58:09.635Z,1005.31
2023-03-11T09:59:09.732Z,1005.28
2023-03-11T10:00:09.907Z,1005.28
2023-03-11T10:01:10.025Z,1005.35
2023-03-11T10:02:10.450Z,1005.32
2023-03-11T10:13:09.250Z,1005.48
2023-03-11T10:15:24.450Z,1005.53
2023-03-11T10:16:24.635Z,1005.52
2023-03-11T10:17:24.642Z,1005.53
2023-03-11T10:18:24.726Z,1005.52
2023-03-11T10:19:24.971Z,1005.49
2023-03-11T10:20:25.229Z,1005.53
2023-03-11T10:21:25.790Z,1005.52
2023-03-11T10:22:25.341Z,1005.54
2023-03-11T10:23:25.769Z,1005.58
2023-03-11T10:24:25.561Z,1005.53
2023-03-11T10:25:25.671Z,1005.53
2023-03-11T10:26:25.910Z,1005.50
2023-03-11T10:27:26.182Z,1005.53
2023-03-11T10:28:26.992Z,1005.57
2023-03-11T10:29:27.094Z,1005.56
2023-03-11T10:30:26.434Z,1005.58
2023-03-11T10:31:26.746Z,1005.52
2023-03-11T10:32:26.752Z,1005.57
2023-03-11T10:33:26.685Z,1005.61
2023-03-11T10:34:26.861Z,1005.66
2023-03-11T10:35:28.190Z,1005.61
2023-03-11T10:36:27.319Z,1005.66
2023-03-11T10:37:38.886Z,1005.63
2023-03-11T10:38:28.584Z,1005.66
2023-03-11T10:39:28.331Z,1005.64
2023-03-11T10:40:28.001Z,1005.70
2023-03-11T10:41:27.739Z,1005.65
2023-03-11T10:42:28.057Z,1005.71
2023-03-11T10:43:28.506Z,1005.71
2023-03-11T10:44:28.353Z,1005.71
2023-03-11T10:45:28.165Z,1005.72
2023-03-11T10:46:28.489Z,1005.71
2023-03-11T10:47:28.499Z,1005.73
2023-03-11T10:48:28.706Z,1005.71
2023-03-11T10:49:28.917Z,1005.72
2023-03-11T10:50:29.024Z,1005.71
2023-03-11T10:51:29.033Z,1005.78
2023-03-11T10:52:29.468Z,1005.73
2023-03-11T10:53:29.331Z,1005.77
2023-03-11T10:54:29.385Z,1005.75
2023-03-11T10:55:29.762Z,1005.72
2023-03-11T10:56:29.654Z,1005.70
2023-03-11T10:57:30.288Z,1005.77
2023-03-11T10:58:30.141Z,1005.71
2023-03-11T10:59:30.203Z,1005.77
2023-03-11T11:00:30.217Z,1005.79
2023-03-11T11:01:30.496Z,1005.78
2023-03-11T11:02:30.617Z,1005.83
2023-03-11T11:03:30.728Z,1005.75
2023-03-11T11:04:30.973Z,1005.78
2023-03-11T11:05:31.358Z,1005.77
2023-03-11T11:06:32.095Z,1005.79
2023-03-11T11:07:31.379Z,1005.80
2023-03-11T11:08:31.498Z,1005.82
2023-03-11T11:09:31.857Z,1005.78
2023-03-11T11:10:32.004Z,1005.78
2023-03-11T11:11:31.928Z,1005.83
2023-03-11T11:12:32.235Z,1005.83
2023-03-11T11:13:32.250Z,1005.80
2023-03-11T11:14:32.444Z,1005.82
2023-03-11T11:15:33.320Z,1005.83
2023-03-11T11:16:32.593Z,1005.82
2023-03-11T11:17:32.936Z,1005.83
2023-03-11T11:18:33.110Z,1005.88
2023-03-11T11:19:33.180Z,1005.84
2023-03-11T11:20:33.209Z,1005.89
2023-03-11T11:21:33.427Z,1005.88
2023-03-11T11:22:33.435Z,1005.85
2023-03-11T11:23:33.547Z,1005.81
2023-03-11T11:24:33.800Z,1005.82
2023-03-11T11:25:34.041Z,1005.85
2023-03-11T11:26:34.443Z,1005.91
2023-03-11T11:27:34.287Z,1005.90
2023-03-11T11:28:34.388Z,1005.90
2023-03-11T11:29:34.469Z,1005.89
2023-03-11T11:30:34.651Z,1005.93
2023-03-11T11:31:34.857Z,1005.91
2023-03-11T11:32:35.838Z,1005.94
2023-03-11T11:33:35.129Z,1005.93
2023-03-11T11:34:35.154Z,1005.91
2023-03-11T11:35:35.280Z,1005.88
2023-03-11T11:36:35.385Z,1005.90
2023-03-11T11:37:35.670Z,1005.94
2023-03-11T11:39:50.750Z,1005.87
2023-03-11T11:40:50.898Z,1005.90
2023-03-11T11:41:51.065Z,1005.85
2023-03-11T11:42:51.973Z,1005.90
2023-03-11T11:43:51.179Z,1005.86
2023-03-11T11:44:51.780Z,1005.83
2023-03-11T11:45:51.478Z,1005.84
2023-03-11T11:46:52.505Z,1005.84
2023-03-11T11:47:51.693Z,1005.84
2023-03-11T11:48:51.930Z,1005.82
2023-03-11T11:49:51.984Z,1005.83
2023-03-11T11:50:52.361Z,1005.83
2023-03-11T11:51:52.347Z,1005.80
2023-03-11T11:52:53.476Z,1005.78
2023-03-11T11:53:52.819Z,1005.79
2023-03-11T11:54:53.258Z,1005.78
2023-03-11T11:55:53.278Z,1005.76
2023-03-11T11:56:53.090Z,1005.78
2023-03-11T11:57:53.101Z,1005.79
2023-03-11T11:58:53.188Z,1005.78
2023-03-11T11:59:53.623Z,1005.76
2023-03-11T12:00:53.379Z,1005.78
2023-03-11T12:01:53.537Z,1005.79
2023-03-11T12:02:54.747Z,1005.76
2023-03-11T12:03:53.899Z,1005.72
2023-03-11T12:04:54.032Z,1005.73
2023-03-11T12:06:15.215Z,1005.77
2023-03-11T12:06:54.340Z,1005.81
2023-03-11T12:07:54.389Z,1005.80
2023-03-11T12:08:54.521Z,1005.82
2023-03-11T12:09:54.730Z,1005.81
2023-03-11T12:10:54.936Z,1005.83
2023-03-11T12:11:55.036Z,1005.85
2023-03-11T12:12:55.469Z,1005.86
2023-03-11T12:13:55.419Z,1005.84
2023-03-11T12:14:55.382Z,1005.86
2023-03-11T12:15:55.631Z,1005.83
2023-03-11T12:16:56.942Z,1005.82
2023-03-11T12:17:56.692Z,1005.86
2023-03-11T12:18:56.946Z,1005.87
2023-03-11T12:19:56.116Z,1005.90
2023-03-11T12:20:56.572Z,1005.86
2023-03-11T12:21:56.540Z,1005.85
2023-03-11T12:22:56.860Z,1005.85
2023-03-11T12:23:57.538Z,1005.89
2023-03-11T12:24:58.135Z,1005.86
2023-03-11T12:25:57.264Z,1005.83
2023-03-11T12:26:57.205Z,1005.83
2023-03-11T12:27:58.274Z,1005.83
2023-03-11T12:28:58.165Z,1005.83
2023-03-11T12:29:58.307Z,1005.84
2023-03-11T12:30:58.472Z,1005.84
2023-03-11T12:31:58.666Z,1005.82
2023-03-11T12:32:58.271Z,1005.85
2023-03-11T12:33:58.264Z,1005.81
2023-03-11T12:34:58.265Z,1005.83
2023-03-11T12:35:58.300Z,1005.86
2023-03-11T12:36:58.484Z,1005.85
2023-03-11T12:37:59.493Z,1005.83
2023-03-11T12:38:59.587Z,1005.84
2023-03-11T12:39:59.735Z,1005.84
2023-03-11T12:40:59.885Z,1005.87
2023-03-11T12:41:59.637Z,1005.89
2023-03-11T12:42:59.740Z,1005.89
2023-03-11T12:44:00.318Z,1005.91
2023-03-11T12:44:59.760Z,1005.92
2023-03-11T12:46:00.759Z,1005.95
2023-03-11T12:47:01.167Z,1005.92
2023-03-11T12:48:00.912Z,1005.99
2023-03-11T12:49:00.082Z,1005.99
2023-03-11T12:50:00.208Z,1005.95
2023-03-11T12:51:00.621Z,1005.94
2023-03-11T12:52:00.979Z,1005.97
2023-03-11T12:53:02.322Z,1005.95
2023-03-11T12:54:00.755Z,1006.00
2023-03-11T12:55:01.130Z,1005.99
2023-03-11T12:56:01.536Z,1006.00
2023-03-11T12:57:02.242Z,1005.96
2023-03-11T12:58:01.684Z,1005.95
2023-03-11T12:59:01.545Z,1005.91
2023-03-11T13:02:21.084Z,1005.95
2023-03-11T13:03:19.043Z,1005.91
2023-03-11T13:04:18.334Z,1005.90
2023-03-11T13:05:18.404Z,1005.95
2023-03-11T13:06:18.398Z,1005.88
2023-03-11T13:07:18.711Z,1005.91
2023-03-11T13:08:18.935Z,1005.91
2023-03-11T13:09:19.223Z,1005.90
2023-03-11T13:10:19.879Z,1005.90
2023-03-11T13:11:19.987Z,1005.93
2023-03-11T13:12:19.319Z,1006.02
2023-03-11T13:13:19.527Z,1006.03
2023-03-11T13:14:19.724Z,1005.99
2023-03-11T13:15:19.862Z,1005.97
2023-03-11T13:16:20.808Z,1006.02
2023-03-11T13:17:20.836Z,1006.01
2023-03-11T13:18:20.540Z,1006.08
2023-03-11T13:19:21.666Z,1006.08
2023-03-11T13:20:21.639Z,1006.09
2023-03-11T13:21:20.484Z,1006.05
2023-03-11T13:22:20.977Z,1006.07
2023-03-11T13:23:20.908Z,1006.08
2023-03-11T13:24:22.470Z,1006.08
2023-03-11T13:25:21.132Z,1006.07
2023-03-11T13:26:21.450Z,1006.08
2023-03-11T13:27:22.950Z,1006.12
2023-03-11T13:28:22.573Z,1006.08
2023-03-11T13:29:21.968Z,1006.09
2023-03-11T13:30:22.837Z,1006.09
2023-03-11T13:31:22.333Z,1006.11
2023-03-11T13:32:22.428Z,1006.08
2023-03-11T13:33:22.623Z,1006.09
2023-03-11T13:34:22.511Z,1006.10
2023-03-11T13:35:22.640Z,1006.15
2023-03-11T13:36:23.800Z,1006.11
2023-03-11T13:37:22.848Z,1006.13
2023-03-11T13:38:22.890Z,1006.08
2023-03-11T13:39:23.112Z,1006.17
2023-03-11T13:40:23.217Z,1006.09
2023-03-11T13:41:23.365Z,1006.11
2023-03-11T13:42:23.495Z,1006.11
2023-03-11T13:43:23.658Z,1006.14
2023-03-11T13:44:23.773Z,1006.15
2023-03-11T13:45:23.976Z,1006.18
2023-03-11T13:46:24.019Z,1006.15
2023-03-11T13:47:24.122Z,1006.15
2023-03-11T13:48:24.287Z,1006.18
2023-03-11T13:49:24.415Z,1006.21
2023-03-11T13:50:24.542Z,1006.20
2023-03-11T13:51:24.654Z,1006.20
2023-03-11T13:52:24.891Z,1006.25
2023-03-11T13:53:24.944Z,1006.22
2023-03-11T13:54:27.038Z,1006.21
2023-03-11T13:55:25.297Z,1006.21
2023-03-11T13:56:25.389Z,1006.24
2023-03-11T13:57:25.526Z,1006.24
2023-03-11T13:58:25.660Z,1006.22
2023-03-11T13:59:25.887Z,1006.28
2023-03-11T14:00:25.874Z,1006.23
2023-03-11T14:01:26.180Z,1006.30
2023-03-11T14:02:26.163Z,1006.34
2023-03-11T14:03:26.273Z,1006.32
2023-03-11T14:04:26.435Z,1006.36
2023-03-11T14:05:26.501Z,1006.30
2023-03-11T14:06:26.621Z,1006.32
2023-03-11T14:07:26.862Z,1006.35
2023-03-11T14:08:26.929Z,1006.43
2023-03-11T14:09:27.102Z,1006.35
2023-03-11T14:10:27.163Z,1006.40
2023-03-11T14:11:27.346Z,1006.38
2023-03-11T14:12:27.526Z,1006.40
2023-03-11T14:13:27.532Z,1006.44
2023-03-11T14:14:27.628Z,1006.45
2023-03-11T14:15:27.799Z,1006.48
2023-03-11T14:16:28.007Z,1006.42
2023-03-11T14:17:28.107Z,1006.44
2023-03-11T14:18:28.497Z,1006.44
2023-03-11T14:19:28.425Z,1006.47
2023-03-11T14:20:28.659Z,1006.51
2023-03-11T14:21:28.671Z,1006.51
2023-03-11T14:22:28.803Z,1006.50
2023-03-11T14:23:28.956Z,1006.50
2023-03-11T14:24:29.174Z,1006.56
2023-03-11T14:26:45.894Z,1006.53
2023-03-11T14:27:47.808Z,1006.53
2023-03-11T14:28:45.969Z,1006.59
2023-03-11T14:29:45.973Z,1006.60
2023-03-11T14:30:46.244Z,1006.56
2023-03-11T14:31:46.268Z,1006.61
2023-03-11T14:32:46.351Z,1006.58
2023-03-11T14:33:47.358Z,1006.63
2023-03-11T14:34:47.095Z,1006.63
2023-03-11T14:35:47.242Z,1006.62
2023-03-11T14:36:47.935Z,1006.63
2023-03-11T14:37:47.208Z,1006.63
2023-03-11T14:38:47.361Z,1006.62
2023-03-11T14:39:51.092Z,1006.59
2023-03-11T14:40:50.777Z,1006.60
2023-03-11T14:41:48.461Z,1006.56
2023-03-11T14:42:48.599Z,1006.60
2023-03-11T14:43:48.724Z,1006.60
2023-03-11T14:44:47.944Z,1006.61
2023-03-11T14:45:48.478Z,1006.57
2023-03-11T14:46:48.535Z,1006.58
2023-03-11T14:47:48.405Z,1006.58
2023-03-11T14:48:49.573Z,1006.62
2023-03-11T14:49:49.568Z,1006.63
2023-03-11T14:50:48.803Z,1006.57
2023-03-11T14:51:49.035Z,1006.61
2023-03-11T14:52:49.903Z,1006.57
2023-03-11T14:53:49.150Z,1006.55
2023-03-11T14:54:49.843Z,1006.60
2023-03-11T14:55:49.824Z,1006.59
2023-03-11T14:56:50.609Z,1006.61
2023-03-11T14:57:50.150Z,1006.59
2023-03-11T14:59:01.659Z,1006.60
2023-03-11T14:59:51.023Z,1006.57
2023-03-11T15:00:51.158Z,1006.54
2023-03-11T15:01:51.757Z,1006.57
2023-03-11T15:02:51.935Z,1006.53
2023-03-11T15:03:50.525Z,1006.53
2023-03-11T15:04:50.793Z,1006.55
2023-03-11T15:05:51.056Z,1006.51
2023-03-11T15:06:51.152Z,1006.48
2023-03-11T15:07:52.067Z,1006.47
2023-03-11T15:08:52.220Z,1006.46
2023-03-11T15:09:52.309Z,1006.48
2023-03-11T15:10:52.486Z,1006.47
2023-03-11T15:11:51.962Z,1006.44
2023-03-11T15:12:52.371Z,1006.43
2023-03-11T15:13:53.112Z,1006.44
2023-03-11T15:14:52.416Z,1006.46
2023-03-11T15:15:53.216Z,1006.39
2023-03-11T15:16:52.583Z,1006.44
2023-03-11T15:17:53.560Z,1006.42
2023-03-11T15:18:53.076Z,1006.40
2023-03-11T15:19:53.775Z,1006.41
2023-03-11T15:20:54.380Z,1006.41
2023-03-11T15:21:53.603Z,1006.45
2023-03-11T15:22:53.343Z,1006.41
2023-03-11T15:23:54.548Z,1006.41
2023-03-11T15:24:54.792Z,1006.40
2023-03-11T15:25:54.580Z,1006.47
2023-03-11T15:26:54.136Z,1006.48
2023-03-11T15:27:54.396Z,1006.48
2023-03-11T15:28:55.068Z,1006.52
2023-03-11T15:29:54.487Z,1006.51
2023-03-11T15:30:54.561Z,1006.51
2023-03-11T15:31:54.613Z,1006.49
2023-03-11T15:32:55.864Z,1006.48
2023-03-11T15:33:55.801Z,1006.49
2023-03-11T15:34:55.769Z,1006.51
2023-03-11T15:35:55.681Z,1006.48
2023-03-11T15:36:55.513Z,1006.55
2023-03-11T15:37:55.687Z,1006.53
2023-03-11T15:38:56.307Z,1006.54
2023-03-11T15:39:57.126Z,1006.55
2023-03-11T15:40:55.779Z,1006.58
2023-03-11T15:41:56.260Z,1006.57
2023-03-11T15:42:56.277Z,1006.56
2023-03-11T15:43:56.349Z,1006.56
2023-03-11T15:44:56.326Z,1006.58
2023-03-11T15:45:56.773Z,1006.55
2023-03-11T15:49:16.035Z,1006.51
2023-03-11T15:50:23.526Z,1006.50
2023-03-11T15:51:14.161Z,1006.56
2023-03-11T15:52:13.083Z,1006.53
2023-03-11T15:53:13.189Z,1006.53
2023-03-11T15:54:13.352Z,1006.51
2023-03-11T15:55:13.477Z,1006.54
2023-03-11T15:56:13.632Z,1006.53
2023-03-11T15:57:13.801Z,1006.54
2023-03-11T15:58:13.969Z,1006.48
2023-03-11T15:59:14.178Z,1006.48
2023-03-11T16:00:14.238Z,1006.51
2023-03-11T16:01:14.339Z,1006.48
2023-03-11T16:12:23.115Z,1006.59
2023-03-11T16:13:22.326Z,1006.63
2023-03-11T16:14:22.111Z,1006.62
2023-03-11T16:15:23.201Z,1006.58
2023-03-11T16:16:23.351Z,1006.59
2023-03-11T16:17:23.359Z,1006.63
2023-03-11T16:18:23.473Z,1006.68
2023-03-11T16:19:23.639Z,1006.64
2023-03-11T16:20:23.277Z,1006.67
2023-03-11T16:21:23.072Z,1006.65
2023-03-11T16:22:23.653Z,1006.67
2023-03-11T16:23:24.336Z,1006.66
2023-03-11T16:24:24.512Z,1006.70
2023-03-11T16:25:23.480Z,1006.63
2023-03-11T16:26:23.628Z,1006.69
2023-03-11T16:27:24.715Z,1006.68
2023-03-11T16:28:25.154Z,1006.67
2023-03-11T16:29:24.026Z,1006.68
2023-03-11T16:30:24.630Z,1006.67
2023-03-11T16:31:25.243Z,1006.71
2023-03-11T16:32:25.751Z,1006.65
2023-03-11T16:33:25.747Z,1006.66
2023-03-11T16:34:25.668Z,1006.66
2023-03-11T16:35:24.949Z,1006.72
2023-03-11T16:36:26.135Z,1006.67
2023-03-11T16:37:25.210Z,1006.69
2023-03-11T16:38:25.963Z,1006.71